createdAt,value
2024-02-06T00:02:32.124Z,-3.60
2024-02-06T00:05:19.054Z,-3.64
2024-02-06T00:08:06.046Z,-3.68
2024-02-06T00:10:53.055Z,-3.73
2024-02-06T00:13:40.213Z,-3.74
2024-02-06T00:16:34.762Z,-3.77
2024-02-06T00:19:21.749Z,-3.86
2024-02-06T00:22:08.606Z,-3.82
2024-02-06T00:24:55.549Z,-3.84
2024-02-06T00:27:42.384Z,-3.86
2024-02-06T00:30:29.434Z,-3.89
2024-02-06T00:33:16.402Z,-3.91
2024-02-06T00:36:03.432Z,-3.94
2024-02-06T00:38:50.240Z,-3.94
2024-02-06T00:41:37.077Z,-3.96
2024-02-06T00:44:24.073Z,-3.99
2024-02-06T00:47:10.865Z,-4.00
2024-02-06T00:49:57.904Z,-4.07
2024-02-06T00:52:44.808Z,-4.09
2024-02-06T00:55:31.915Z,-4.08
2024-02-06T00:58:18.810Z,-4.10
2024-02-06T01:00:53.990Z,-4.12
2024-02-06T01:03:21.136Z,-4.13
2024-02-06T01:05:48.200Z,-4.15
2024-02-06T01:08:15.286Z,-4.16
2024-02-06T01:10:42.421Z,-4.19
2024-02-06T01:13:29.315Z,-4.18
2024-02-06T01:16:16.125Z,-4.20
2024-02-06T01:19:03.154Z,-4.21
2024-02-06T01:21:50.057Z,-4.26
2024-02-06T01:24:36.797Z,-4.26
2024-02-06T01:27:23.817Z,-4.29
2024-02-06T01:30:10.657Z,-4.29
2024-02-06T01:32:57.760Z,-4.31
2024-02-06T01:35:44.806Z,-4.31
2024-02-06T01:38:31.730Z,-4.37
2024-02-06T01:41:18.597Z,-4.35
2024-02-06T01:44:05.467Z,-4.44
2024-02-06T01:46:52.718Z,-4.37
2024-02-06T01:49:40.379Z,-4.37
2024-02-06T01:52:28.979Z,-4.39
2024-02-06T01:55:15.906Z,-4.40
2024-02-06T01:58:07.338Z,-4.40
2024-02-06T02:00:55.499Z,-4.44
2024-02-06T02:03:43.586Z,-4.42
2024-02-06T02:06:31.232Z,-4.43
2024-02-06T02:09:18.397Z,-4.44
2024-02-06T02:12:05.267Z,-4.44
2024-02-06T02:14:52.394Z,-4.61
2024-02-06T02:17:39.276Z,-4.57
2024-02-06T02:20:26.605Z,-4.50
2024-02-06T02:23:19.874Z,-4.48
2024-02-06T02:26:12.812Z,-4.49
2024-02-06T02:29:01.876Z,-4.51
2024-02-06T02:31:50.481Z,-4.50
2024-02-06T02:34:37.450Z,-4.52
2024-02-06T02:37:24.680Z,-4.52
2024-02-06T02:40:12.026Z,-4.53
2024-02-06T02:42:58.915Z,-4.56
2024-02-06T02:45:45.841Z,-4.56
2024-02-06T02:48:32.793Z,-4.55
2024-02-06T02:51:19.657Z,-4.55
2024-02-06T02:54:06.523Z,-4.68
2024-02-06T02:56:53.487Z,-4.58
2024-02-06T02:59:40.314Z,-4.70
2024-02-06T03:02:27.228Z,-4.58
2024-02-06T03:05:14.187Z,-4.60
2024-02-06T03:08:01.069Z,-4.57
2024-02-06T03:10:47.972Z,-4.74
2024-02-06T03:13:34.894Z,-4.57
2024-02-06T03:16:21.950Z,-4.57
2024-02-06T03:19:08.902Z,-4.55
2024-02-06T03:21:55.794Z,-4.56
2024-02-06T03:24:42.792Z,-4.55
2024-02-06T03:27:29.956Z,-4.53
2024-02-06T03:30:16.923Z,-4.54
2024-02-06T03:33:03.930Z,-4.57
2024-02-06T03:35:50.898Z,-4.56
2024-02-06T03:38:37.756Z,-4.52
2024-02-06T03:41:24.746Z,-4.52
2024-02-06T03:44:11.608Z,-4.68
2024-02-06T03:46:58.610Z,-4.52
2024-02-06T03:49:45.492Z,-4.53
2024-02-06T03:52:32.530Z,-4.52
2024-02-06T03:55:19.420Z,-4.52
2024-02-06T03:58:06.378Z,-4.53
2024-02-06T04:00:53.326Z,-4.57
2024-02-06T04:03:40.351Z,-4.52
2024-02-06T04:06:27.417Z,-4.53
2024-02-06T04:09:14.478Z,-4.53
2024-02-06T04:12:01.475Z,-4.53
2024-02-06T04:14:48.534Z,-4.53
2024-02-06T04:17:35.379Z,-4.54
2024-02-06T04:20:22.241Z,-4.52
2024-02-06T04:23:09.125Z,-4.54
2024-02-06T04:25:55.929Z,-4.55
2024-02-06T04:28:42.945Z,-4.56
2024-02-06T04:31:29.954Z,-4.53
2024-02-06T04:34:17.218Z,-4.55
2024-02-06T04:37:05.199Z,-4.55
2024-02-06T04:39:52.244Z,-4.55
2024-02-06T04:42:39.133Z,-4.55
2024-02-06T04:45:26.453Z,-4.55
2024-02-06T04:48:13.473Z,-4.62
2024-02-06T04:51:00.348Z,-4.57
2024-02-06T04:53:47.338Z,-4.82
2024-02-06T04:56:34.268Z,-4.57
2024-02-06T04:59:21.111Z,-4.58
2024-02-06T05:02:08.001Z,-4.59
2024-02-06T05:04:55.525Z,-4.62
2024-02-06T05:07:43.016Z,-4.59
2024-02-06T05:10:32.962Z,-4.66
2024-02-06T05:13:19.836Z,-4.60
2024-02-06T05:16:06.707Z,-4.60
2024-02-06T05:18:53.917Z,-4.69
2024-02-06T05:21:40.861Z,-4.70
2024-02-06T05:24:29.118Z,-4.62
2024-02-06T05:27:16.016Z,-4.61
2024-02-06T05:30:02.877Z,-4.63
2024-02-06T05:32:49.748Z,-4.63
2024-02-06T05:35:36.802Z,-4.72
2024-02-06T05:38:23.776Z,-4.66
2024-02-06T05:41:10.625Z,-4.65
2024-02-06T05:43:57.493Z,-4.65
2024-02-06T05:46:44.425Z,-4.67
2024-02-06T05:49:31.460Z,-4.65
2024-02-06T05:52:18.417Z,-4.67
2024-02-06T05:55:05.284Z,-4.67
2024-02-06T05:57:52.130Z,-4.69
2024-02-06T06:00:39.396Z,-4.71
2024-02-06T06:03:26.437Z,-4.73
2024-02-06T06:06:13.410Z,-4.72
2024-02-06T06:09:00.392Z,-4.74
2024-02-06T06:11:47.362Z,-4.76
2024-02-06T06:14:34.227Z,-4.79
2024-02-06T06:17:21.409Z,-4.83
2024-02-06T06:20:08.382Z,-4.79
2024-02-06T06:22:55.308Z,-4.81
2024-02-06T06:25:42.238Z,-4.84
2024-02-06T06:28:29.237Z,-5.07
2024-02-06T06:31:16.121Z,-4.88
2024-02-06T06:34:03.163Z,-4.90
2024-02-06T06:36:50.114Z,-4.92
2024-02-06T06:39:36.972Z,-4.94
2024-02-06T06:42:24.046Z,-5.09
2024-02-06T06:45:10.942Z,-4.96
2024-02-06T06:47:57.975Z,-5.01
2024-02-06T06:50:45.000Z,-5.01
2024-02-06T06:53:31.942Z,-5.02
2024-02-06T06:56:18.800Z,-5.06
2024-02-06T06:59:06.384Z,-5.04
2024-02-06T07:01:53.371Z,-5.06
2024-02-06T07:04:40.304Z,-5.08
2024-02-06T07:07:27.234Z,-5.10
2024-02-06T07:10:14.126Z,-5.11
2024-02-06T07:13:01.069Z,-5.13
2024-02-06T07:15:47.928Z,-5.15
2024-02-06T07:18:35.041Z,-5.22
2024-02-06T07:21:21.948Z,-5.20
2024-02-06T07:24:08.755Z,-5.22
2024-02-06T07:26:55.595Z,-5.25
2024-02-06T07:29:42.491Z,-5.27
2024-02-06T07:32:29.532Z,-5.30
2024-02-06T07:35:16.609Z,-5.58
2024-02-06T07:38:07.230Z,-5.38
2024-02-06T07:40:55.479Z,-5.41
2024-02-06T07:43:42.407Z,-5.44
2024-02-06T07:46:29.301Z,-5.48
2024-02-06T07:49:16.351Z,-5.50
2024-02-06T07:52:03.298Z,-5.57
2024-02-06T07:54:50.245Z,-5.61
2024-02-06T07:57:37.055Z,-5.63
2024-02-06T08:00:25.504Z,-5.69
2024-02-06T08:03:12.462Z,-5.73
2024-02-06T08:05:59.510Z,-5.78
2024-02-06T08:08:46.508Z,-5.81
2024-02-06T08:11:33.367Z,-5.86
2024-02-06T08:14:21.628Z,-5.90
2024-02-06T08:17:08.530Z,-5.97
2024-02-06T08:19:55.617Z,-6.07
2024-02-06T08:22:42.589Z,-6.02
2024-02-06T08:25:31.189Z,-6.05
2024-02-06T08:28:18.847Z,-6.09
2024-02-06T08:31:05.806Z,-6.13
2024-02-06T08:33:52.730Z,-6.16
2024-02-06T08:36:39.809Z,-6.22
2024-02-06T08:39:26.882Z,-6.24
2024-02-06T08:42:13.853Z,-6.35
2024-02-06T08:45:01.403Z,-6.33
2024-02-06T08:47:48.302Z,-6.34
2024-02-06T08:50:35.416Z,-6.37
2024-02-06T08:53:22.539Z,-6.40
2024-02-06T08:56:09.540Z,-6.44
2024-02-06T08:58:56.435Z,-6.45
2024-02-06T09:01:44.301Z,-6.47
2024-02-06T09:04:31.555Z,-6.50
2024-02-06T09:07:18.732Z,-6.52
2024-02-06T09:10:05.653Z,-6.55
2024-02-06T09:12:52.516Z,-6.59
2024-02-06T09:15:39.415Z,-6.59
2024-02-06T09:18:26.574Z,-6.88
2024-02-06T09:21:13.628Z,-6.62
2024-02-06T09:24:00.434Z,-6.62
2024-02-06T09:26:47.407Z,-6.64
2024-02-06T09:29:34.279Z,-6.64
2024-02-06T09:32:21.129Z,-6.65
2024-02-06T09:35:08.019Z,-6.68
2024-02-06T09:37:54.953Z,-6.67
2024-02-06T09:40:44.316Z,-6.66
2024-02-06T09:43:31.685Z,-6.68
2024-02-06T09:46:19.102Z,-6.67
2024-02-06T09:49:06.116Z,-6.66
2024-02-06T09:51:54.027Z,-6.69
2024-02-06T09:54:45.117Z,-6.66
2024-02-06T09:57:32.987Z,-6.66
2024-02-06T10:00:20.839Z,-6.65
2024-02-06T10:03:11.065Z,-6.65
2024-02-06T10:06:02.741Z,-6.65
2024-02-06T10:08:49.738Z,-6.66
2024-02-06T10:11:38.521Z,-6.85
2024-02-06T10:14:26.337Z,-6.75
2024-02-06T10:17:13.262Z,-6.66
2024-02-06T10:20:00.236Z,-6.65
2024-02-06T10:22:50.866Z,-6.64
2024-02-06T10:25:39.038Z,-6.67
2024-02-06T10:28:26.113Z,-6.67
2024-02-06T10:31:13.346Z,-6.87
2024-02-06T10:34:00.846Z,-6.68
2024-02-06T10:36:48.322Z,-6.67
2024-02-06T10:39:35.319Z,-6.68
2024-02-06T10:42:53.899Z,-6.70
2024-02-06T10:45:36.841Z,-6.75
2024-02-06T10:48:25.099Z,-6.64
2024-02-06T10:51:23.882Z,-6.63
2024-02-06T10:54:13.085Z,-6.67
2024-02-06T10:57:06.706Z,-6.57
2024-02-06T11:00:13.076Z,-6.54
2024-02-06T11:03:01.727Z,-6.51
2024-02-06T11:06:13.229Z,-6.48
2024-02-06T11:09:00.539Z,-6.54
2024-02-06T11:11:47.548Z,-6.39
2024-02-06T11:14:35.750Z,-6.35
2024-02-06T11:17:24.481Z,-6.32
2024-02-06T11:20:27.352Z,-6.32
2024-02-06T11:23:14.984Z,-6.28
2024-02-06T11:26:02.773Z,-6.28
2024-02-06T11:28:50.326Z,-6.27
2024-02-06T11:31:37.463Z,-6.27
2024-02-06T11:34:37.999Z,-6.28
2024-02-06T11:37:25.084Z,-6.28
2024-02-06T11:40:22.961Z,-6.38
2024-02-06T11:43:28.183Z,-6.31
2024-02-06T11:46:21.503Z,-6.32
2024-02-06T11:49:08.513Z,-6.33
2024-02-06T11:51:55.520Z,-6.34
2024-02-06T11:54:45.935Z,-6.34
2024-02-06T11:57:32.919Z,-6.34
2024-02-06T12:00:20.016Z,-6.38
2024-02-06T12:03:11.890Z,-6.36
2024-02-06T12:06:00.101Z,-6.37
2024-02-06T12:08:47.058Z,-6.38
2024-02-06T12:11:34.112Z,-6.35
2024-02-06T12:14:21.365Z,-6.37
2024-02-06T12:17:09.629Z,-6.38
2024-02-06T12:19:57.538Z,-6.37
2024-02-06T12:22:44.567Z,-6.43
2024-02-06T12:25:35.054Z,-6.37
2024-02-06T12:28:24.013Z,-6.38
2024-02-06T12:31:20.551Z,-6.38
2024-02-06T12:34:07.837Z,-6.39
2024-02-06T12:36:58.589Z,-6.38
2024-02-06T12:39:45.548Z,-6.38
2024-02-06T12:42:32.528Z,-6.41
2024-02-06T12:45:22.286Z,-6.39
2024-02-06T12:48:10.352Z,-6.39
2024-02-06T12:50:57.382Z,-6.38
2024-02-06T12:53:45.140Z,-6.39
2024-02-06T12:56:32.681Z,-6.39
2024-02-06T12:59:27.895Z,-6.41
2024-02-06T13:02:26.361Z,-6.42
2024-02-06T13:05:13.770Z,-6.44
2024-02-06T13:08:00.871Z,-6.59
2024-02-06T13:10:47.956Z,-6.44
2024-02-06T13:13:41.833Z,-6.44
2024-02-06T13:16:30.084Z,-6.45
2024-02-06T13:19:19.900Z,-6.46
2024-02-06T13:22:06.902Z,-6.48
2024-02-06T13:24:55.013Z,-6.48
2024-02-06T13:27:41.868Z,-6.49
2024-02-06T13:30:32.888Z,-6.50
2024-02-06T13:33:21.806Z,-6.54
2024-02-06T13:36:08.891Z,-6.64
2024-02-06T13:38:55.771Z,-6.53
2024-02-06T13:41:42.687Z,-6.54
2024-02-06T13:44:29.551Z,-6.55
2024-02-06T13:47:16.435Z,-6.56
2024-02-06T13:50:03.403Z,-6.58
2024-02-06T13:52:51.382Z,-6.60
2024-02-06T13:55:38.326Z,-6.66
2024-02-06T13:58:25.346Z,-6.65
2024-02-06T14:01:12.446Z,-6.72
2024-02-06T14:03:59.546Z,-6.68
2024-02-06T14:06:46.562Z,-6.70
2024-02-06T14:09:33.444Z,-6.74
2024-02-06T14:12:23.643Z,-6.78
2024-02-06T14:15:13.310Z,-6.77
2024-02-06T14:18:00.213Z,-6.80
2024-02-06T14:20:47.192Z,-6.86
2024-02-06T14:23:34.040Z,-6.85
2024-02-06T14:26:20.893Z,-6.89
2024-02-06T14:29:07.719Z,-6.90
2024-02-06T14:31:54.763Z,-6.93
2024-02-06T14:34:41.759Z,-6.95
2024-02-06T14:37:28.641Z,-7.07
2024-02-06T14:40:15.640Z,-7.01
2024-02-06T14:43:02.938Z,-7.06
2024-02-06T14:45:49.843Z,-7.08
2024-02-06T14:48:38.718Z,-7.11
2024-02-06T14:51:28.731Z,-7.15
2024-02-06T14:54:15.619Z,-7.21
2024-02-06T14:57:08.167Z,-7.28
2024-02-06T14:59:57.255Z,-7.26
2024-02-06T15:02:44.201Z,-7.32
2024-02-06T15:05:31.167Z,-7.34
2024-02-06T15:08:18.260Z,-7.38
2024-02-06T15:11:06.036Z,-7.42
2024-02-06T15:13:52.964Z,-7.49
2024-02-06T15:16:39.939Z,-7.52
2024-02-06T15:19:27.437Z,-7.57
2024-02-06T15:22:14.405Z,-7.61
2024-02-06T15:25:01.426Z,-7.69
2024-02-06T15:27:48.355Z,-7.71
2024-02-06T15:30:35.312Z,-7.76
2024-02-06T15:33:22.531Z,-7.90
2024-02-06T15:36:09.564Z,-7.87
2024-02-06T15:38:56.463Z,-7.90
2024-02-06T15:41:43.472Z,-7.95
2024-02-06T15:44:30.328Z,-8.00
2024-02-06T15:47:17.157Z,-8.06
2024-02-06T15:50:05.723Z,-8.10
2024-02-06T15:52:52.919Z,-8.16
2024-02-06T15:55:41.587Z,-8.20
2024-02-06T15:58:31.185Z,-8.25
2024-02-06T16:01:18.140Z,-8.32
2024-02-06T16:04:05.246Z,-8.37
2024-02-06T16:06:52.260Z,-8.40
2024-02-06T16:09:39.224Z,-8.48
2024-02-06T16:12:36.952Z,-8.60
2024-02-06T16:15:28.905Z,-8.55
2024-02-06T16:18:15.950Z,-8.62
2024-02-06T16:21:03.541Z,-8.79
